EKCH Airport Information

Runway Information
Runway 04L Length 11811 ft width 148 ft
Elevation 13 ft Threshold 0 ft Heading 41
Runway 22R Length 11811 ft Width 148 ft
Elevation 14 ft Threshold 1967 ft Heading 221
Runway 04R Length 10827 ft width 148 ft
Elevation 12 ft Threshold 0 ft Heading 41
Runway 22L Length 10827 ft Width 148 ft
Elevation 8 ft Threshold 0 ft Heading 221
Runway 12 Length 10072 ft width 148 ft
Elevation 13 ft Threshold 2313 ft Heading 123
Runway 30 Length 10072 ft Width 148 ft
Elevation 8 ft Threshold 886 ft Heading 303
Airport Frequencies
Type APP Name Kastrup Ar Frequency 118.45 MHZ
Type APP Name Copenhagen Frequency 119.8 MHZ
Type APP Name Kastrup Fi Frequency 120.2 MHZ
Type ATIS Name Kastrup Ar Frequency 122.75 MHZ
Type ATIS Name Kastrup De Frequency 122.85 MHZ
Type DEL Name Kastrup Cl Frequency 119.9 MHZ
Type DEP Name Kastrup De Frequency 120.25 MHZ
Type DEP Name Kastrup De Frequency 124.975 MHZ
Type GND Name Kastrup Ap Frequency 121.625 MHZ
Type GND Name Kastrup Ap Frequency 121.725 MHZ
Type GND Name Kastrup Ap Frequency 121.9 MHZ
Type TWR Name Kastrup To Frequency 118.1 MHZ
Type TWR Name Kastrup To Frequency 118.575 MHZ
Type TWR Name Kastrup To Frequency 118.7 MHZ
Type TWR Name Kastrup To Frequency 119.35 MHZ
Type TWR Name Kastrup To Frequency 121.825 MHZ
Airport Navaids
Type VOR-DME Name Kastrup Frequency 112500 KHZ
Airport Weather Information & NOTAM
ADDS - METARS form results

(0012 UTC 18 January 2018)
 
METAR text: EKCH 172350Z 25008KT 9999 BKN008 02/00 Q0995 R04L/710154 R04R/710161 R12/710164 TEMPO BKN012
Conditions at: EKCH (COPENHAGEN/KASTR, DK) observed 2350 UTC 17 January 2018
Temperature: 2.0°C (36°F)
Dewpoint: 0.0°C (32°F) [RH = 87%]
Pressure (altimeter): 29.38 inches Hg (995.0 mb)
Winds: from the WSW (250 degrees) at 9 MPH (8 knots; 4.2 m/s)
Visibility: 6 or more miles (10+ km)
Ceiling: 800 feet AGL
Clouds: broken clouds at 800 feet AGL
Weather: no significant weather observed at this time

METAR text: EKCH 172320Z 26008KT 9999 BKN013 02/00 Q0995 R04L/310153 R04R/310163 R12/310162 TEMPO BKN015
Conditions at: EKCH (COPENHAGEN/KASTR, DK) observed 2320 UTC 17 January 2018
Temperature: 2.0°C (36°F)
Dewpoint: 0.0°C (32°F) [RH = 87%]
Pressure (altimeter): 29.38 inches Hg (995.0 mb)
Winds: from the W (260 degrees) at 9 MPH (8 knots; 4.2 m/s)
Visibility: 6 or more miles (10+ km)
Ceiling: 1300 feet AGL
Clouds: broken clouds at 1300 feet AGL
Weather: no significant weather observed at this time